createdAt,value
2022-11-05T00:01:07.027Z,2.38
2022-11-05T00:03:51.753Z,1.40
2022-11-05T00:06:37.197Z,1.65
2022-11-05T00:09:25.089Z,0.98
2022-11-05T00:12:10.141Z,1.33
2022-11-05T00:14:55.515Z,1.63
2022-11-05T00:17:24.513Z,2.83
2022-11-05T00:19:50.896Z,1.80
2022-11-05T00:22:35.987Z,3.22
2022-11-05T00:25:17.994Z,1.30
2022-11-05T00:27:53.231Z,0.22
2022-11-05T00:30:23.458Z,3.78
2022-11-05T00:32:51.341Z,1.73
2022-11-05T00:35:19.727Z,1.92
2022-11-05T00:37:50.053Z,2.17
2022-11-05T00:40:17.132Z,0.85
2022-11-05T00:45:33.610Z,1.75
2022-11-05T00:48:18.528Z,0.90
2022-11-05T00:50:44.897Z,0.98
2022-11-05T00:53:16.775Z,0.95
2022-11-05T00:55:46.223Z,4.70
2022-11-05T00:58:16.159Z,2.53
2022-11-05T01:00:45.177Z,2.45
2022-11-05T01:03:14.578Z,1.10
2022-11-05T01:06:12.853Z,1.75
2022-11-05T01:08:40.625Z,2.25
2022-11-05T01:11:33.330Z,0.52
2022-11-05T01:14:13.803Z,1.55
2022-11-05T01:16:40.855Z,1.85
2022-11-05T01:19:09.973Z,1.35
2022-11-05T01:21:36.787Z,2.42
2022-11-05T01:24:04.084Z,1.13
2022-11-05T01:26:30.759Z,2.47
2022-11-05T01:29:00.468Z,0.95
2022-11-05T01:31:28.546Z,2.42
2022-11-05T01:33:59.027Z,1.15
2022-11-05T01:36:25.524Z,0.65
2022-11-05T01:41:18.391Z,3.72
2022-11-05T01:43:51.686Z,1.15
2022-11-05T01:46:21.945Z,1.77
2022-11-05T01:48:58.588Z,1.45
2022-11-05T01:51:28.977Z,2.92
2022-11-05T01:54:12.118Z,2.97
2022-11-05T01:56:46.840Z,1.13
2022-11-05T01:59:15.704Z,1.02
2022-11-05T02:01:51.232Z,2.70
2022-11-05T02:04:55.741Z,1.15
2022-11-05T02:07:25.512Z,1.85
2022-11-05T02:10:05.952Z,1.98
2022-11-05T02:12:34.360Z,1.02
2022-11-05T02:15:00.769Z,0.47
2022-11-05T02:17:33.018Z,0.93
2022-11-05T02:20:19.300Z,1.45
2022-11-05T02:23:04.436Z,1.50
2022-11-05T02:26:09.628Z,0.30
2022-11-05T02:29:00.900Z,0.20
2022-11-05T02:31:41.568Z,0.73
2022-11-05T02:34:14.002Z,0.30
2022-11-05T02:36:51.507Z,2.60
2022-11-05T02:39:25.899Z,0.35
2022-11-05T02:42:05.338Z,0.50
2022-11-05T02:44:50.410Z,0.98
2022-11-05T02:47:27.047Z,0.20
2022-11-05T02:50:07.507Z,0.13
2022-11-05T02:52:46.434Z,1.25
2022-11-05T02:55:32.347Z,0.20
2022-11-05T02:57:59.774Z,3.47
2022-11-05T03:00:52.806Z,0.20
2022-11-05T03:03:48.494Z,0.00
2022-11-05T03:06:33.630Z,0.32
2022-11-05T03:09:45.399Z,0.10
2022-11-05T03:12:21.682Z,0.15
2022-11-05T03:14:51.243Z,0.00
2022-11-05T03:17:45.567Z,0.13
2022-11-05T03:20:37.918Z,0.10
2022-11-05T03:23:33.336Z,1.65
2022-11-05T03:26:08.477Z,0.00
2022-11-05T03:28:38.796Z,0.10
2022-11-05T03:31:20.803Z,0.08
2022-11-05T03:33:49.056Z,0.08
2022-11-05T03:36:30.033Z,0.00
2022-11-05T03:39:00.619Z,0.00
2022-11-05T03:41:29.359Z,0.10
2022-11-05T03:43:59.779Z,0.10
2022-11-05T03:46:28.413Z,0.03
2022-11-05T03:48:57.019Z,0.28
2022-11-05T03:51:39.927Z,0.03
2022-11-05T03:54:07.108Z,0.00
2022-11-05T03:56:49.675Z,0.47
2022-11-05T03:59:17.647Z,0.00
2022-11-05T04:01:44.307Z,0.00
2022-11-05T04:04:11.142Z,0.00
2022-11-05T04:06:56.332Z,0.38
2022-11-05T04:09:41.426Z,0.00
2022-11-05T04:12:28.241Z,0.00
2022-11-05T04:14:54.760Z,0.00
2022-11-05T04:20:12.589Z,0.00
2022-11-05T04:22:57.542Z,0.15
2022-11-05T04:25:25.076Z,0.05
2022-11-05T04:27:51.818Z,0.10
2022-11-05T04:30:19.488Z,0.00
2022-11-05T04:33:09.728Z,0.55
2022-11-05T04:35:39.094Z,0.00
2022-11-05T04:38:07.590Z,0.00
2022-11-05T04:40:34.047Z,0.00
2022-11-05T04:45:29.262Z,0.00
2022-11-05T04:47:55.715Z,0.10
2022-11-05T04:52:50.619Z,0.10
2022-11-05T04:55:17.530Z,0.00
2022-11-05T04:57:46.823Z,0.00
2022-11-05T05:00:13.415Z,0.10
2022-11-05T05:02:39.800Z,0.10
2022-11-05T05:05:09.040Z,0.03
2022-11-05T05:07:35.705Z,0.28
2022-11-05T05:10:02.969Z,0.00
2022-11-05T05:12:29.710Z,0.10
2022-11-05T05:15:02.472Z,0.22
2022-11-05T05:20:13.583Z,0.00
2022-11-05T05:22:39.978Z,0.00
2022-11-05T05:25:06.933Z,0.00
2022-11-05T05:27:33.353Z,0.00
2022-11-05T05:32:40.461Z,0.20
2022-11-05T05:37:34.993Z,0.00
2022-11-05T05:40:02.048Z,0.77
2022-11-05T05:42:28.795Z,0.00
2022-11-05T05:44:55.191Z,0.00
2022-11-05T05:47:22.875Z,0.13
2022-11-05T05:49:49.486Z,0.20
2022-11-05T05:52:17.802Z,0.32
2022-11-05T05:54:44.349Z,0.00
2022-11-05T05:59:37.610Z,0.20
2022-11-05T06:02:04.125Z,0.10
2022-11-05T06:04:30.598Z,0.52
2022-11-05T06:06:57.046Z,0.25
2022-11-05T06:09:24.052Z,0.38
2022-11-05T06:11:50.729Z,0.10
2022-11-05T06:14:18.225Z,1.05
2022-11-05T06:16:44.765Z,0.10
2022-11-05T06:21:37.635Z,0.15
2022-11-05T06:26:36.938Z,0.25
2022-11-05T06:29:03.848Z,0.10
2022-11-05T06:31:32.707Z,0.00
2022-11-05T06:33:59.174Z,0.20
2022-11-05T06:36:27.646Z,0.17
2022-11-05T06:39:01.881Z,0.10
2022-11-05T06:41:28.591Z,0.45
2022-11-05T06:43:55.161Z,0.03
2022-11-05T06:48:48.173Z,1.13
2022-11-05T06:51:14.631Z,0.98
2022-11-05T06:56:15.773Z,0.15
2022-11-05T06:58:44.508Z,0.20
2022-11-05T07:01:10.997Z,0.20
2022-11-05T07:03:38.384Z,0.70
2022-11-05T07:06:08.062Z,1.00
2022-11-05T07:08:35.290Z,2.75
2022-11-05T07:11:06.196Z,2.17
2022-11-05T07:13:35.228Z,0.57
2022-11-05T07:16:01.649Z,0.17
2022-11-05T07:20:57.169Z,6.60
2022-11-05T07:23:27.002Z,0.05
2022-11-05T07:25:53.402Z,0.10
2022-11-05T07:30:46.429Z,0.93
2022-11-05T07:33:13.405Z,0.10
2022-11-05T07:35:40.209Z,0.45
2022-11-05T07:40:33.521Z,0.30
2022-11-05T07:45:30.990Z,0.10
2022-11-05T07:48:00.387Z,0.43
2022-11-05T07:50:30.472Z,0.17
2022-11-05T07:53:05.470Z,0.10
2022-11-05T07:55:32.067Z,0.10
2022-11-05T07:57:59.364Z,0.30
2022-11-05T08:00:26.882Z,0.00
2022-11-05T08:03:19.016Z,0.10
2022-11-05T08:05:47.584Z,0.68
2022-11-05T08:08:18.886Z,0.50
2022-11-05T08:10:45.658Z,0.10
2022-11-05T08:13:23.325Z,0.20
2022-11-05T08:15:49.847Z,0.73
2022-11-05T08:18:20.049Z,0.82
2022-11-05T08:20:47.295Z,0.20
2022-11-05T08:23:14.452Z,1.20
2022-11-05T08:25:41.970Z,0.60
2022-11-05T08:28:13.012Z,0.65
2022-11-05T08:30:39.855Z,0.22
2022-11-05T08:33:10.146Z,2.88
2022-11-05T08:35:37.659Z,1.73
2022-11-05T08:38:08.560Z,0.20
2022-11-05T08:40:36.726Z,0.00
2022-11-05T08:43:06.614Z,0.85
2022-11-05T08:45:34.646Z,0.52
2022-11-05T08:48:08.271Z,1.45
2022-11-05T08:50:35.152Z,0.68
2022-11-05T08:53:01.719Z,1.13
2022-11-05T08:55:28.216Z,0.50
2022-11-05T08:57:56.426Z,1.58
2022-11-05T09:00:25.378Z,1.02
2022-11-05T09:02:51.754Z,0.40
2022-11-05T09:05:18.265Z,0.65
2022-11-05T09:07:46.687Z,1.58
2022-11-05T09:10:13.180Z,2.25
2022-11-05T09:12:57.959Z,1.05
2022-11-05T09:15:24.729Z,3.17
2022-11-05T09:17:51.326Z,1.33
2022-11-05T09:20:18.099Z,3.13
2022-11-05T09:22:45.034Z,3.40
2022-11-05T09:25:11.750Z,2.17
2022-11-05T09:27:43.880Z,1.60
2022-11-05T09:30:11.690Z,2.30
2022-11-05T09:32:38.490Z,1.05
2022-11-05T09:35:05.512Z,0.40
2022-11-05T09:37:32.505Z,3.15
2022-11-05T09:39:58.972Z,1.13
2022-11-05T09:42:31.393Z,1.35
2022-11-05T09:47:41.975Z,0.88
2022-11-05T09:50:15.061Z,6.05
2022-11-05T09:52:41.774Z,1.15
2022-11-05T09:55:40.674Z,2.15
2022-11-05T09:58:17.360Z,4.00
2022-11-05T10:00:48.526Z,3.63
2022-11-05T10:03:20.908Z,1.45
2022-11-05T10:05:49.338Z,2.70
2022-11-05T10:08:38.158Z,1.02
2022-11-05T10:11:13.580Z,2.17
2022-11-05T10:13:45.103Z,2.30
2022-11-05T10:16:41.595Z,1.02
2022-11-05T10:19:24.611Z,1.33
2022-11-05T10:22:06.619Z,3.05
2022-11-05T10:24:37.296Z,1.63
2022-11-05T10:27:07.226Z,1.50
2022-11-05T10:29:34.935Z,1.13
2022-11-05T10:32:05.469Z,0.93
2022-11-05T10:34:36.742Z,0.32
2022-11-05T10:37:04.149Z,1.02
2022-11-05T10:39:32.454Z,1.27
2022-11-05T10:42:29.773Z,2.33
2022-11-05T10:45:15.147Z,0.60
2022-11-05T10:48:00.187Z,0.68
2022-11-05T10:52:59.221Z,2.90
2022-11-05T10:55:30.820Z,1.40
2022-11-05T10:58:15.857Z,0.73
2022-11-05T11:03:39.753Z,1.73
2022-11-05T11:06:19.330Z,0.93
2022-11-05T11:08:48.746Z,1.15
2022-11-05T11:11:33.626Z,0.70
2022-11-05T11:14:03.683Z,2.42
2022-11-05T11:16:44.130Z,1.35
2022-11-05T11:19:30.643Z,2.08
2022-11-05T11:22:02.983Z,1.15
2022-11-05T11:27:07.425Z,1.10
2022-11-05T11:29:42.935Z,1.98
2022-11-05T11:32:15.670Z,1.00
2022-11-05T11:34:44.346Z,0.40
2022-11-05T11:37:19.601Z,0.43
2022-11-05T11:39:50.176Z,0.75
2022-11-05T11:42:21.710Z,0.13
2022-11-05T11:44:49.261Z,0.43
2022-11-05T11:47:18.761Z,1.35
2022-11-05T11:49:50.277Z,0.28
2022-11-05T11:52:37.352Z,0.68
2022-11-05T11:55:22.689Z,0.75
2022-11-05T11:58:04.807Z,0.40
2022-11-05T12:00:41.826Z,0.43
2022-11-05T12:03:17.374Z,0.35
2022-11-05T12:05:53.139Z,0.17
2022-11-05T12:08:36.605Z,0.55
2022-11-05T12:11:20.514Z,0.55
2022-11-05T12:13:54.866Z,1.75
2022-11-05T12:16:58.948Z,0.45
2022-11-05T12:19:46.736Z,1.20
2022-11-05T12:22:36.092Z,0.55
2022-11-05T12:25:38.914Z,0.80
2022-11-05T12:28:21.531Z,0.43
2022-11-05T12:30:56.077Z,0.30
2022-11-05T12:33:41.002Z,0.80
2022-11-05T12:36:25.564Z,1.33
2022-11-05T12:39:14.649Z,1.95
2022-11-05T12:41:53.500Z,0.55
2022-11-05T12:44:34.985Z,0.38
2022-11-05T12:47:16.185Z,0.20
2022-11-05T12:50:09.789Z,0.80
2022-11-05T12:53:08.502Z,0.75
2022-11-05T12:55:44.076Z,0.70
2022-11-05T12:58:35.613Z,1.80
2022-11-05T13:01:11.216Z,1.58
2022-11-05T13:03:47.846Z,1.90
2022-11-05T13:06:18.119Z,1.67
2022-11-05T13:08:55.137Z,3.72
2022-11-05T13:11:40.692Z,3.38
2022-11-05T13:14:18.384Z,1.38
2022-11-05T13:16:49.796Z,1.45
2022-11-05T13:19:28.551Z,1.02
2022-11-05T13:22:09.521Z,1.35
2022-11-05T13:25:00.696Z,1.30
2022-11-05T13:30:17.112Z,1.05
2022-11-05T13:32:49.031Z,1.38
2022-11-05T13:35:25.511Z,0.38
2022-11-05T13:38:15.917Z,0.65
2022-11-05T13:40:58.002Z,1.27
2022-11-05T13:43:42.556Z,1.08
2022-11-05T13:46:51.193Z,0.88
2022-11-05T13:49:55.876Z,0.95
2022-11-05T13:53:19.002Z,0.60
2022-11-05T13:56:06.868Z,0.95
2022-11-05T13:59:05.475Z,2.45
2022-11-05T14:01:53.257Z,0.90
2022-11-05T14:04:26.604Z,1.35
2022-11-05T14:06:54.649Z,1.58
2022-11-05T14:09:27.202Z,0.68
2022-11-05T14:11:58.358Z,2.17
2022-11-05T14:14:31.837Z,0.70
2022-11-05T14:17:07.495Z,1.15
2022-11-05T14:19:49.329Z,1.88
2022-11-05T14:22:31.274Z,1.30
2022-11-05T14:25:02.273Z,0.73
2022-11-05T14:27:29.333Z,0.93
2022-11-05T14:29:56.005Z,0.68
2022-11-05T14:32:25.404Z,0.82
2022-11-05T14:35:02.069Z,0.30
2022-11-05T14:37:55.818Z,0.80
2022-11-05T14:40:22.641Z,0.73
2022-11-05T14:42:54.888Z,0.77
2022-11-05T14:45:29.388Z,0.30
2022-11-05T14:47:58.825Z,2.10
2022-11-05T14:50:51.675Z,2.03
2022-11-05T14:53:33.686Z,1.67
2022-11-05T14:56:05.812Z,0.35
2022-11-05T14:58:33.962Z,3.65
2022-11-05T15:01:02.872Z,1.13
2022-11-05T15:03:46.316Z,0.68
2022-11-05T15:06:29.183Z,0.38
2022-11-05T15:09:37.900Z,2.25
2022-11-05T15:12:11.332Z,0.77
2022-11-05T15:14:51.291Z,2.08
2022-11-05T15:17:29.881Z,3.90
2022-11-05T15:20:06.729Z,2.55
2022-11-05T15:25:34.219Z,3.25
2022-11-05T15:28:07.860Z,3.30
2022-11-05T15:30:34.285Z,4.40
2022-11-05T15:33:20.441Z,1.83
2022-11-05T15:35:47.123Z,2.17
2022-11-05T15:38:36.929Z,2.13
2022-11-05T15:58:10.674Z,3.85
2022-11-05T16:00:37.419Z,4.20
2022-11-05T16:03:18.895Z,3.25
2022-11-05T16:05:47.915Z,5.13
2022-11-05T16:08:24.133Z,3.42
2022-11-05T16:11:01.395Z,2.85
2022-11-05T16:14:00.971Z,3.78
2022-11-05T16:16:33.933Z,3.40
2022-11-05T16:19:00.517Z,4.47
2022-11-05T16:21:27.112Z,3.72
2022-11-05T16:23:58.127Z,3.85
2022-11-05T16:27:02.249Z,3.70
2022-11-05T16:30:11.152Z,4.90
2022-11-05T16:35:18.903Z,4.60
2022-11-05T16:40:29.470Z,6.60
2022-11-05T16:46:16.875Z,3.10
2022-11-05T16:48:43.383Z,5.60
2022-11-05T16:51:13.190Z,8.40
2022-11-05T16:53:39.639Z,3.45
2022-11-05T16:56:06.501Z,4.10
2022-11-05T16:58:32.925Z,4.25
2022-11-05T17:01:35.642Z,5.63
2022-11-05T17:04:11.307Z,4.00
2022-11-05T17:06:52.517Z,3.03
2022-11-05T17:12:32.592Z,5.88
2022-11-05T17:15:11.313Z,3.40
2022-11-05T17:17:37.747Z,2.63
2022-11-05T17:20:10.844Z,4.68
2022-11-05T17:29:45.319Z,5.45
2022-11-05T17:32:19.963Z,6.55
2022-11-05T17:34:46.566Z,4.45
2022-11-05T17:37:31.013Z,6.05
2022-11-05T18:03:42.053Z,4.60
2022-11-05T18:06:09.069Z,5.78
2022-11-05T18:09:02.973Z,5.45
2022-11-05T18:11:31.551Z,3.47
2022-11-05T18:17:21.453Z,3.67
2022-11-05T18:20:01.493Z,2.58
2022-11-05T18:22:30.264Z,4.30
2022-11-05T18:25:19.729Z,2.50
2022-11-05T18:28:18.037Z,3.80
2022-11-05T18:53:16.583Z,4.38
2022-11-05T18:56:07.910Z,6.00
2022-11-05T18:58:49.946Z,6.30
2022-11-05T19:01:36.164Z,6.00
2022-11-05T19:04:20.718Z,5.28
2022-11-05T19:07:08.891Z,5.05
2022-11-05T19:09:36.281Z,4.75
2022-11-05T19:12:03.589Z,5.30
2022-11-05T19:14:30.269Z,7.30
2022-11-05T19:17:00.175Z,3.88
2022-11-05T19:19:27.647Z,4.88
2022-11-05T19:21:54.271Z,7.25
2022-11-05T19:24:20.982Z,6.75
2022-11-05T19:26:48.148Z,4.97
2022-11-05T19:29:14.699Z,3.65
2022-11-05T19:34:08.204Z,10.05
2022-11-05T19:36:34.926Z,12.88
2022-11-05T19:39:06.313Z,8.02
2022-11-05T19:41:32.802Z,10.00
2022-11-05T19:44:01.512Z,7.82
2022-11-05T19:46:29.468Z,7.47
2022-11-05T19:48:55.954Z,9.57
2022-11-05T19:53:52.756Z,8.35
2022-11-05T19:56:24.418Z,4.85
2022-11-05T19:58:53.052Z,5.38
2022-11-05T20:01:21.586Z,5.00
2022-11-05T20:03:48.284Z,10.98
2022-11-05T20:06:20.887Z,5.22
2022-11-05T20:09:15.354Z,5.38
2022-11-05T20:11:37.406Z,6.22
2022-11-05T20:14:07.529Z,7.15
2022-11-05T20:16:38.242Z,9.02
2022-11-05T20:19:09.319Z,5.82
2022-11-05T20:21:36.327Z,6.72
2022-11-05T20:24:03.184Z,6.88
2022-11-05T20:26:29.736Z,6.22
2022-11-05T20:28:56.488Z,7.72
2022-11-05T20:31:23.625Z,5.75
2022-11-05T20:33:50.178Z,3.53
2022-11-05T20:36:19.245Z,7.18
2022-11-05T20:38:53.292Z,8.60
2022-11-05T20:41:23.947Z,4.60
2022-11-05T20:43:50.866Z,5.47
2022-11-05T20:46:19.357Z,4.85
2022-11-05T20:48:46.191Z,6.80
2022-11-05T20:51:15.275Z,6.88
2022-11-05T20:53:42.206Z,5.72
2022-11-05T20:56:15.253Z,5.03
2022-11-05T20:58:41.759Z,2.95
2022-11-05T21:03:34.831Z,4.18
2022-11-05T21:08:32.970Z,4.20
2022-11-05T21:10:59.652Z,5.07
2022-11-05T21:13:29.426Z,2.97
2022-11-05T21:15:58.419Z,7.20
2022-11-05T21:18:30.248Z,7.32
2022-11-05T21:20:57.546Z,4.43
2022-11-05T21:23:24.074Z,4.85
2022-11-05T21:28:17.045Z,4.93
2022-11-05T21:33:15.475Z,4.45
2022-11-05T21:35:44.259Z,6.72
2022-11-05T21:38:11.946Z,3.30
2022-11-05T21:40:39.036Z,6.65
2022-11-05T21:43:05.615Z,6.30
2022-11-05T21:47:58.578Z,2.63
2022-11-05T21:53:34.100Z,6.15
2022-11-05T21:56:44.700Z,3.90
2022-11-05T21:59:34.621Z,3.78
2022-11-05T22:02:01.933Z,6.55
2022-11-05T22:04:41.158Z,2.75
2022-11-05T22:07:08.861Z,6.32
2022-11-05T22:09:35.882Z,5.20
2022-11-05T22:12:02.631Z,4.32
2022-11-05T22:14:29.377Z,5.63
2022-11-05T22:16:56.725Z,6.90
2022-11-05T22:19:23.701Z,4.32
2022-11-05T22:21:50.235Z,4.90
2022-11-05T22:26:44.868Z,3.97
2022-11-05T22:29:12.232Z,7.30
2022-11-05T22:31:39.126Z,7.68
2022-11-05T22:34:07.007Z,3.92
2022-11-05T22:36:34.126Z,6.47
2022-11-05T22:39:01.079Z,5.95
2022-11-05T22:41:27.741Z,9.55
2022-11-05T22:43:54.560Z,7.07
2022-11-05T22:46:23.437Z,5.47
2022-11-05T22:48:50.327Z,7.25
2022-11-05T22:51:22.080Z,3.65
2022-11-05T22:53:48.859Z,3.13
2022-11-05T22:56:18.616Z,5.75
2022-11-05T22:58:45.478Z,3.67
2022-11-05T23:01:13.200Z,5.35
2022-11-05T23:03:41.375Z,4.68
2022-11-05T23:07:08.098Z,6.32
2022-11-05T23:20:35.327Z,5.13
2022-11-05T23:23:25.365Z,4.35
2022-11-05T23:26:11.515Z,4.05
2022-11-05T23:53:32.068Z,4.95
2022-11-05T23:59:30.894Z,4.18
